createdAt,value
2022-10-10T00:01:27.131Z,100654.13
2022-10-10T00:03:55.199Z,100646.13
2022-10-10T00:06:23.067Z,100638.59
2022-10-10T00:08:53.196Z,100644.00
2022-10-10T00:11:22.789Z,100651.41
2022-10-10T00:13:52.128Z,100647.16
2022-10-10T00:16:20.156Z,100648.50
2022-10-10T00:18:48.148Z,100638.56
2022-10-10T00:21:18.476Z,100632.50
2022-10-10T00:23:45.689Z,100639.34
2022-10-10T00:26:19.164Z,100639.44
2022-10-10T00:28:47.790Z,100631.41
2022-10-10T00:31:15.449Z,100637.78
2022-10-10T00:33:46.921Z,100653.84
2022-10-10T00:36:14.624Z,100640.88
2022-10-10T00:38:42.339Z,100630.00
2022-10-10T00:41:10.003Z,100636.78
2022-10-10T00:43:37.571Z,100640.59
2022-10-10T00:46:04.919Z,100635.88
2022-10-10T00:48:37.702Z,100636.38
2022-10-10T00:51:06.612Z,100651.94
2022-10-10T00:53:44.972Z,100624.88
2022-10-10T00:56:13.814Z,100641.75
2022-10-10T00:58:45.210Z,100644.09
2022-10-10T01:01:12.654Z,100650.03
2022-10-10T01:03:39.999Z,100642.47
2022-10-10T01:06:07.306Z,100643.09
2022-10-10T01:08:35.510Z,100641.88
2022-10-10T01:11:08.896Z,100645.81
2022-10-10T01:14:04.841Z,100643.50
2022-10-10T01:16:38.253Z,100650.84
2022-10-10T01:19:25.286Z,100648.44
2022-10-10T01:22:29.823Z,100650.66
2022-10-10T01:25:23.748Z,100643.53
2022-10-10T01:28:02.943Z,100656.16
2022-10-10T01:30:31.241Z,100663.66
2022-10-10T01:33:09.165Z,100660.34
2022-10-10T01:35:59.471Z,100662.72
2022-10-10T01:38:45.411Z,100666.50
2022-10-10T01:41:15.625Z,100670.34
2022-10-10T01:43:43.295Z,100675.13
2022-10-10T01:46:16.640Z,100670.09
2022-10-10T01:48:47.169Z,100666.66
2022-10-10T01:51:32.651Z,100672.44
2022-10-10T01:54:24.542Z,100674.66
2022-10-10T01:57:01.288Z,100680.44
2022-10-10T01:59:49.052Z,100680.66
2022-10-10T02:02:24.427Z,100683.50
2022-10-10T02:05:14.481Z,100679.94
2022-10-10T02:07:47.894Z,100684.59
2022-10-10T02:10:21.277Z,100683.72
2022-10-10T02:12:49.388Z,100687.03
2022-10-10T02:15:24.978Z,100679.09
2022-10-10T02:17:52.608Z,100682.63
2022-10-10T02:20:23.294Z,100679.09
2022-10-10T02:22:54.463Z,100690.72
2022-10-10T02:25:27.228Z,100690.97
2022-10-10T02:28:00.049Z,100702.84
2022-10-10T02:30:27.532Z,100686.81
2022-10-10T02:33:09.016Z,100696.25
2022-10-10T02:35:41.846Z,100705.44
2022-10-10T02:38:11.478Z,100694.88
2022-10-10T02:40:40.191Z,100695.63
2022-10-10T02:43:08.707Z,100699.91
2022-10-10T02:45:36.265Z,100699.31
2022-10-10T02:48:04.293Z,100704.06
2022-10-10T02:50:31.940Z,100699.75
2022-10-10T02:52:59.985Z,100710.19
2022-10-10T02:55:27.735Z,100711.28
2022-10-10T02:57:55.004Z,100702.34
2022-10-10T03:00:22.351Z,100705.53
2022-10-10T03:02:52.576Z,100707.38
2022-10-10T03:05:19.953Z,100713.34
2022-10-10T03:07:47.494Z,100716.03
2022-10-10T03:10:14.697Z,100712.38
2022-10-10T03:12:41.948Z,100711.50
2022-10-10T03:15:12.322Z,100718.84
2022-10-10T03:17:40.587Z,100709.91
2022-10-10T03:20:10.472Z,100720.22
2022-10-10T03:22:40.984Z,100718.47
2022-10-10T03:25:08.341Z,100719.22
2022-10-10T03:27:35.691Z,100723.78
2022-10-10T03:30:04.242Z,100704.91
2022-10-10T03:32:31.879Z,100717.03
2022-10-10T03:34:59.191Z,100714.47
2022-10-10T03:37:26.819Z,100723.28
2022-10-10T03:39:54.305Z,100714.72
2022-10-10T03:42:23.028Z,100712.66
2022-10-10T03:44:50.255Z,100715.72
2022-10-10T03:47:17.506Z,100716.09
2022-10-10T03:49:44.772Z,100717.44
2022-10-10T03:52:12.011Z,100714.38
2022-10-10T03:54:39.365Z,100722.94
2022-10-10T03:57:08.054Z,100723.56
2022-10-10T03:59:35.424Z,100724.31
2022-10-10T04:02:02.678Z,100724.56
2022-10-10T04:04:29.967Z,100714.97
2022-10-10T04:06:57.196Z,100720.75
2022-10-10T04:09:25.996Z,100718.41
2022-10-10T04:11:55.129Z,100716.06
2022-10-10T04:14:22.475Z,100717.16
2022-10-10T04:16:49.751Z,100727.19
2022-10-10T04:19:17.719Z,100719.81
2022-10-10T04:21:46.004Z,100723.72
2022-10-10T04:24:13.257Z,100716.69
2022-10-10T04:26:40.512Z,100729.38
2022-10-10T04:29:08.436Z,100718.91
2022-10-10T04:31:35.787Z,100718.13
2022-10-10T04:34:02.977Z,100731.72
2022-10-10T04:36:31.056Z,100729.84
2022-10-10T04:38:59.489Z,100729.59
2022-10-10T04:41:29.236Z,100744.19
2022-10-10T04:43:56.497Z,100736.69
2022-10-10T04:46:24.005Z,100742.78
2022-10-10T04:48:51.450Z,100744.81
2022-10-10T04:51:21.874Z,100750.63
2022-10-10T04:53:50.535Z,100751.84
2022-10-10T04:56:17.933Z,100750.16
2022-10-10T04:58:45.190Z,100760.75
2022-10-10T05:01:12.455Z,100757.53
2022-10-10T05:03:40.354Z,100757.22
2022-10-10T05:06:07.803Z,100764.09
2022-10-10T05:08:35.203Z,100778.59
2022-10-10T05:11:05.154Z,100776.13
2022-10-10T05:13:32.431Z,100769.41
2022-10-10T05:16:01.873Z,100774.03
2022-10-10T05:18:29.250Z,100767.59
2022-10-10T05:20:59.812Z,100776.50
2022-10-10T05:23:30.654Z,100781.00
2022-10-10T05:25:57.909Z,100782.44
2022-10-10T05:28:25.389Z,100781.25
2022-10-10T05:30:52.971Z,100790.56
2022-10-10T05:33:21.351Z,100780.91
2022-10-10T05:35:48.814Z,100788.91
2022-10-10T05:38:16.163Z,100791.31
2022-10-10T05:40:58.168Z,100780.84
2022-10-10T05:43:31.899Z,100792.44
2022-10-10T05:46:00.162Z,100780.44
2022-10-10T05:48:28.425Z,100786.56
2022-10-10T05:53:53.194Z,100790.84
2022-10-10T05:56:23.621Z,100795.00
2022-10-10T06:02:13.634Z,100801.94
2022-10-10T06:04:41.719Z,100800.38
2022-10-10T06:07:12.553Z,100793.38
2022-10-10T06:09:42.107Z,100794.16
2022-10-10T06:32:14.715Z,100815.25
2022-10-10T06:34:42.353Z,100810.13
2022-10-10T06:37:12.636Z,100806.84
2022-10-10T06:39:39.938Z,100810.00
2022-10-10T06:42:09.122Z,100803.75
2022-10-10T06:44:38.201Z,100815.09
2022-10-10T06:47:05.582Z,100807.72
2022-10-10T06:49:37.081Z,100801.94
2022-10-10T06:52:04.875Z,100804.41
2022-10-10T06:54:32.200Z,100796.91
2022-10-10T06:56:59.917Z,100796.47
2022-10-10T06:59:30.227Z,100788.06
2022-10-10T07:01:58.511Z,100795.72
2022-10-10T07:04:25.835Z,100784.53
2022-10-10T07:06:55.194Z,100789.25
2022-10-10T07:09:22.640Z,100793.47
2022-10-10T07:11:50.497Z,100786.41
2022-10-10T07:14:19.113Z,100780.03
2022-10-10T07:16:49.020Z,100785.66
2022-10-10T07:19:25.148Z,100778.69
2022-10-10T07:21:52.647Z,100787.16
2022-10-10T07:24:20.207Z,100776.03
2022-10-10T07:26:49.536Z,100778.63
2022-10-10T07:29:18.264Z,100771.78
2022-10-10T07:31:45.558Z,100772.00
2022-10-10T07:34:12.765Z,100772.59
2022-10-10T07:36:40.248Z,100766.75
2022-10-10T07:39:07.922Z,100783.59
2022-10-10T07:41:42.981Z,100771.59
2022-10-10T07:44:11.906Z,100770.41
2022-10-10T07:46:42.354Z,100763.47
2022-10-10T07:49:13.205Z,100765.09
2022-10-10T07:51:42.507Z,100761.06
2022-10-10T07:54:10.023Z,100777.06
2022-10-10T07:56:37.790Z,100777.81
2022-10-10T07:59:07.509Z,100776.72
2022-10-10T08:01:36.084Z,100772.63
2022-10-10T08:04:16.980Z,100773.50
2022-10-10T08:06:56.949Z,100770.91
2022-10-10T08:09:40.203Z,100759.81
2022-10-10T08:12:09.712Z,100772.25
2022-10-10T08:15:21.541Z,100763.88
2022-10-10T08:18:11.657Z,100766.31
2022-10-10T08:20:40.804Z,100762.13
2022-10-10T08:23:08.116Z,100769.19
2022-10-10T08:25:35.485Z,100773.44
2022-10-10T08:28:08.329Z,100774.44
2022-10-10T08:30:40.551Z,100763.88
2022-10-10T08:33:07.853Z,100759.72
2022-10-10T08:35:39.083Z,100764.56
2022-10-10T08:38:07.010Z,100771.41
2022-10-10T08:40:34.380Z,100768.53
2022-10-10T08:43:04.738Z,100765.53
2022-10-10T08:45:33.456Z,100757.28
2022-10-10T08:48:12.678Z,100763.09
2022-10-10T08:50:53.580Z,100769.09
2022-10-10T08:53:27.207Z,100770.84
2022-10-10T08:58:55.910Z,100776.06
2022-10-10T09:01:34.658Z,100775.50
2022-10-10T09:04:05.346Z,100789.34
2022-10-10T09:06:47.745Z,100779.63
2022-10-10T09:09:20.701Z,100780.66
2022-10-10T09:12:03.305Z,100777.19
2022-10-10T09:14:50.577Z,100786.88
2022-10-10T09:17:50.324Z,100777.72
2022-10-10T09:20:36.080Z,100773.03
2022-10-10T09:23:19.086Z,100774.81
2022-10-10T09:25:51.412Z,100778.78
2022-10-10T09:28:38.381Z,100776.09
2022-10-10T09:31:12.719Z,100771.34
2022-10-10T09:33:54.514Z,100773.06
2022-10-10T09:36:35.281Z,100779.38
2022-10-10T09:39:38.888Z,100783.78
2022-10-10T09:42:18.170Z,100775.94
2022-10-10T09:44:47.294Z,100779.53
2022-10-10T09:47:19.262Z,100787.19
2022-10-10T09:49:49.653Z,100774.91
2022-10-10T09:52:23.533Z,100778.47
2022-10-10T09:54:57.208Z,100785.16
2022-10-10T09:57:30.402Z,100783.72
2022-10-10T10:00:03.804Z,100787.28
2022-10-10T10:02:34.711Z,100783.72
2022-10-10T10:05:20.849Z,100772.47
2022-10-10T10:07:53.320Z,100771.34
2022-10-10T10:10:24.536Z,100771.81
2022-10-10T10:12:54.681Z,100762.06
2022-10-10T10:15:29.082Z,100775.78
2022-10-10T10:18:17.505Z,100770.53
2022-10-10T10:20:49.838Z,100764.81
2022-10-10T10:23:30.764Z,100769.66
2022-10-10T10:26:09.477Z,100766.63
2022-10-10T10:28:41.580Z,100766.75
2022-10-10T10:31:23.877Z,100768.75
2022-10-10T10:34:40.401Z,100770.28
2022-10-10T10:37:19.534Z,100775.13
2022-10-10T10:40:18.572Z,100770.59
2022-10-10T10:43:00.222Z,100768.41
2022-10-10T10:45:45.596Z,100758.84
2022-10-10T10:48:29.329Z,100764.94
2022-10-10T10:51:17.498Z,100767.16
2022-10-10T10:54:06.298Z,100772.81
2022-10-10T10:56:46.704Z,100769.47
2022-10-10T11:00:22.442Z,100773.31
2022-10-10T11:02:57.526Z,100755.53
2022-10-10T11:06:24.297Z,100749.56
2022-10-10T11:09:31.035Z,100766.19
2022-10-10T11:12:27.634Z,100750.34
2022-10-10T11:16:05.305Z,100758.41
2022-10-10T11:18:36.485Z,100754.50
2022-10-10T11:21:21.354Z,100752.00
2022-10-10T11:24:10.694Z,100763.41
2022-10-10T11:26:47.829Z,100749.63
2022-10-10T11:29:19.238Z,100762.09
2022-10-10T11:32:13.005Z,100744.88
2022-10-10T11:35:14.082Z,100738.59
2022-10-10T11:37:46.682Z,100746.97
2022-10-10T11:40:54.654Z,100753.84
2022-10-10T11:43:27.511Z,100757.91
2022-10-10T11:46:04.627Z,100769.56
2022-10-10T11:48:41.052Z,100767.72
2022-10-10T11:51:25.921Z,100769.78
2022-10-10T11:53:58.110Z,100773.72
2022-10-10T11:56:33.293Z,100768.44
2022-10-10T11:59:35.262Z,100769.31
2022-10-10T12:02:14.745Z,100771.75
2022-10-10T12:04:44.796Z,100774.22
2022-10-10T12:07:26.268Z,100779.25
2022-10-10T12:10:06.959Z,100783.41
2022-10-10T12:12:46.117Z,100775.69
2022-10-10T12:15:25.195Z,100785.63
2022-10-10T12:17:52.871Z,100782.81
2022-10-10T12:20:20.127Z,100785.50
2022-10-10T12:23:11.113Z,100783.53
2022-10-10T12:25:42.484Z,100777.88
2022-10-10T12:28:12.733Z,100774.19
2022-10-10T12:30:57.130Z,100782.28
2022-10-10T12:33:34.730Z,100789.44
2022-10-10T12:36:17.010Z,100785.63
2022-10-10T12:39:10.208Z,100784.53
2022-10-10T12:41:47.548Z,100786.22
2022-10-10T12:44:15.172Z,100781.06
2022-10-10T12:46:45.802Z,100785.63
2022-10-10T12:49:22.736Z,100779.59
2022-10-10T12:52:12.705Z,100790.66
2022-10-10T12:55:06.770Z,100794.59
2022-10-10T12:58:02.599Z,100789.88
2022-10-10T13:01:47.928Z,100786.09
2022-10-10T13:04:23.812Z,100780.72
2022-10-10T13:06:55.523Z,100795.69
2022-10-10T13:09:29.985Z,100786.59
2022-10-10T13:12:04.372Z,100797.91
2022-10-10T13:14:45.215Z,100801.44
2022-10-10T13:17:36.371Z,100790.75
2022-10-10T13:20:09.879Z,100800.09
2022-10-10T13:22:37.488Z,100794.84
2022-10-10T13:25:12.346Z,100791.50
2022-10-10T13:27:40.498Z,100796.44
2022-10-10T13:30:08.705Z,100798.25
2022-10-10T13:32:37.548Z,100797.75
2022-10-10T13:35:13.965Z,100794.34
2022-10-10T13:37:42.065Z,100797.97
2022-10-10T13:40:22.549Z,100797.97
2022-10-10T13:42:56.131Z,100810.50
2022-10-10T13:45:31.589Z,100786.59
2022-10-10T13:48:01.842Z,100806.81
2022-10-10T13:50:53.702Z,100797.69
2022-10-10T13:53:30.465Z,100808.38
2022-10-10T13:56:23.901Z,100800.28
2022-10-10T13:59:13.061Z,100807.31
2022-10-10T14:01:45.359Z,100812.06
2022-10-10T14:04:25.207Z,100804.84
2022-10-10T14:07:28.957Z,100797.59
2022-10-10T14:10:06.582Z,100804.47
2022-10-10T14:12:39.893Z,100809.16
2022-10-10T14:15:36.691Z,100822.38
2022-10-10T14:18:13.535Z,100812.16
2022-10-10T14:20:43.224Z,100809.59
2022-10-10T14:23:13.722Z,100802.72
2022-10-10T14:25:43.900Z,100813.50
2022-10-10T14:28:35.207Z,100811.03
2022-10-10T14:31:04.459Z,100814.47
2022-10-10T14:33:35.422Z,100821.34
2022-10-10T14:36:03.671Z,100819.41
2022-10-10T14:38:31.640Z,100817.44
2022-10-10T14:41:00.131Z,100817.06
2022-10-10T14:43:29.255Z,100820.53
2022-10-10T14:45:57.865Z,100823.44
2022-10-10T14:48:25.614Z,100827.00
2022-10-10T14:50:53.214Z,100827.00
2022-10-10T14:53:21.883Z,100830.69
2022-10-10T14:55:53.847Z,100828.47
2022-10-10T14:58:23.911Z,100831.75
2022-10-10T15:00:52.452Z,100825.59
2022-10-10T15:03:19.761Z,100840.19
2022-10-10T15:05:48.709Z,100838.94
2022-10-10T15:08:17.996Z,100839.16
2022-10-10T15:10:46.427Z,100838.31
2022-10-10T15:13:14.563Z,100838.44
2022-10-10T15:15:42.090Z,100841.22
2022-10-10T15:18:26.649Z,100842.13
2022-10-10T15:20:59.344Z,100837.59
2022-10-10T15:23:27.145Z,100844.81
2022-10-10T15:25:54.341Z,100835.25
2022-10-10T15:28:21.673Z,100841.34
2022-10-10T15:30:49.117Z,100841.72
2022-10-10T15:33:17.984Z,100848.72
2022-10-10T15:36:07.957Z,100848.94
2022-10-10T15:38:34.592Z,100863.38
2022-10-10T15:41:09.810Z,100858.44
2022-10-10T15:43:54.634Z,100860.06
2022-10-10T15:46:26.775Z,100863.84
2022-10-10T15:48:56.381Z,100864.06
2022-10-10T15:51:26.370Z,100869.53
2022-10-10T15:54:07.693Z,100874.41
2022-10-10T15:56:36.219Z,100871.72
2022-10-10T15:59:14.078Z,100870.00
2022-10-10T16:01:43.562Z,100878.19
2022-10-10T16:04:10.981Z,100871.09
2022-10-10T16:06:38.436Z,100867.66
2022-10-10T16:09:27.588Z,100873.25
2022-10-10T16:11:56.000Z,100883.06
2022-10-10T16:14:25.425Z,100886.72
2022-10-10T16:16:53.770Z,100873.25
2022-10-10T16:19:22.562Z,100874.97
2022-10-10T16:21:50.136Z,100869.72
2022-10-10T16:24:17.620Z,100878.75
2022-10-10T16:26:47.147Z,100867.13
2022-10-10T16:29:15.767Z,100874.34
2022-10-10T16:31:43.635Z,100873.34
2022-10-10T16:34:18.302Z,100868.84
2022-10-10T16:36:46.092Z,100867.03
2022-10-10T16:39:13.971Z,100878.75
2022-10-10T16:41:47.918Z,100860.78
2022-10-10T16:44:17.224Z,100875.19
2022-10-10T16:46:45.054Z,100862.94
2022-10-10T16:49:13.881Z,100876.19
2022-10-10T16:51:44.420Z,100868.44
2022-10-10T16:54:12.985Z,100874.69
2022-10-10T16:56:41.993Z,100885.38
2022-10-10T16:59:10.399Z,100874.28
2022-10-10T17:01:37.783Z,100873.09
2022-10-10T17:04:05.049Z,100877.59
2022-10-10T17:06:37.869Z,100869.41
2022-10-10T17:09:11.485Z,100869.41
2022-10-10T17:11:40.173Z,100870.97
2022-10-10T17:14:07.838Z,100868.91
2022-10-10T17:19:23.676Z,100883.31
2022-10-10T17:21:53.379Z,100872.78
2022-10-10T17:24:25.241Z,100856.72
2022-10-10T17:26:55.040Z,100868.69
2022-10-10T17:29:24.045Z,100866.84
2022-10-10T17:31:51.356Z,100876.03
2022-10-10T17:34:20.341Z,100881.31
2022-10-10T17:36:48.831Z,100876.03
2022-10-10T17:39:16.186Z,100870.41
2022-10-10T17:41:48.191Z,100879.38
2022-10-10T17:44:15.730Z,100885.50
2022-10-10T17:46:47.335Z,100882.16
2022-10-10T17:49:14.623Z,100885.50
2022-10-10T17:51:42.192Z,100876.44
2022-10-10T17:54:10.169Z,100897.13
2022-10-10T17:56:40.763Z,100888.19
2022-10-10T17:59:08.201Z,100888.31
2022-10-10T18:01:37.087Z,100885.97
2022-10-10T18:04:05.036Z,100891.00
2022-10-10T18:06:37.070Z,100891.00
2022-10-10T18:09:05.848Z,100896.59
2022-10-10T18:11:33.605Z,100886.28
2022-10-10T18:14:03.836Z,100882.84
2022-10-10T18:16:34.519Z,100887.88
2022-10-10T18:19:11.063Z,100891.22
2022-10-10T18:21:38.690Z,100882.63
2022-10-10T18:24:09.205Z,100887.03
2022-10-10T18:26:41.883Z,100886.59
2022-10-10T18:29:13.072Z,100867.03
2022-10-10T18:31:47.998Z,100877.78
2022-10-10T18:34:17.260Z,100868.09
2022-10-10T18:36:44.783Z,100873.72
2022-10-10T18:39:23.794Z,100877.34
2022-10-10T18:41:55.956Z,100874.25
2022-10-10T18:44:24.548Z,100874.34
2022-10-10T18:46:52.059Z,100879.53
2022-10-10T18:49:21.713Z,100868.97
2022-10-10T18:51:51.104Z,100871.78
2022-10-10T18:54:21.537Z,100866.75
2022-10-10T18:56:52.129Z,100861.47
2022-10-10T18:59:22.265Z,100870.63
2022-10-10T19:01:51.914Z,100866.31
2022-10-10T19:04:22.611Z,100857.72
2022-10-10T19:06:57.050Z,100857.91
2022-10-10T19:09:26.953Z,100863.63
2022-10-10T19:11:55.972Z,100862.56
2022-10-10T19:14:29.601Z,100850.94
2022-10-10T19:16:58.926Z,100852.78
2022-10-10T19:19:29.371Z,100849.97
2022-10-10T19:21:56.859Z,100853.84
2022-10-10T19:24:25.877Z,100841.50
2022-10-10T19:26:56.784Z,100850.19
2022-10-10T19:29:25.688Z,100851.16
2022-10-10T19:31:53.613Z,100851.16
2022-10-10T19:34:20.957Z,100841.25
2022-10-10T19:36:49.824Z,100842.09
2022-10-10T19:39:17.220Z,100850.94
2022-10-10T19:41:44.439Z,100841.03
2022-10-10T19:44:11.657Z,100831.69
2022-10-10T19:46:39.344Z,100850.28
2022-10-10T19:49:06.705Z,100847.16
2022-10-10T19:51:34.695Z,100834.69
2022-10-10T19:54:02.605Z,100832.00
2022-10-10T19:56:30.252Z,100840.28
2022-10-10T19:59:01.326Z,100836.13
2022-10-10T20:01:30.544Z,100832.34
2022-10-10T20:03:58.582Z,100828.91
2022-10-10T20:06:26.752Z,100821.91
2022-10-10T20:08:54.376Z,100824.25
2022-10-10T20:11:23.270Z,100809.97
2022-10-10T20:13:57.507Z,100827.81
2022-10-10T20:16:26.980Z,100823.28
2022-10-10T20:18:57.256Z,100812.44
2022-10-10T20:21:32.379Z,100819.66
2022-10-10T20:24:08.982Z,100816.31
2022-10-10T20:26:36.757Z,100801.78
2022-10-10T20:29:05.548Z,100814.88
2022-10-10T20:31:34.960Z,100803.28
2022-10-10T20:34:03.810Z,100806.41
2022-10-10T20:36:32.505Z,100804.44
2022-10-10T20:39:02.416Z,100802.50
2022-10-10T20:41:31.574Z,100789.19
2022-10-10T20:44:01.260Z,100800.34
2022-10-10T20:46:30.755Z,100806.72
2022-10-10T20:48:59.288Z,100799.28
2022-10-10T20:51:28.202Z,100790.78
2022-10-10T20:54:01.141Z,100787.53
2022-10-10T20:56:29.845Z,100802.81
2022-10-10T20:58:59.155Z,100788.94
2022-10-10T21:01:29.293Z,100791.28
2022-10-10T21:03:57.197Z,100785.28
2022-10-10T21:06:44.417Z,100788.72
2022-10-10T21:09:14.011Z,100792.50
2022-10-10T21:11:46.442Z,100790.03
2022-10-10T21:14:16.252Z,100786.38
2022-10-10T21:16:43.998Z,100789.28
2022-10-10T21:19:12.199Z,100778.84
2022-10-10T21:21:40.616Z,100779.06
2022-10-10T21:24:11.023Z,100788.00
2022-10-10T21:26:39.529Z,100779.84
2022-10-10T21:29:06.886Z,100771.97
2022-10-10T21:31:36.862Z,100778.88
2022-10-10T21:34:07.177Z,100788.78
2022-10-10T21:36:36.729Z,100776.31
2022-10-10T21:39:06.591Z,100784.69
2022-10-10T21:41:34.465Z,100785.88
2022-10-10T21:44:01.961Z,100782.31
2022-10-10T21:46:36.626Z,100779.75
2022-10-10T21:49:10.103Z,100792.78
2022-10-10T21:51:40.103Z,100773.84
2022-10-10T21:54:09.174Z,100782.66
2022-10-10T21:56:37.669Z,100788.03
2022-10-10T21:59:06.007Z,100792.53
2022-10-10T22:01:33.890Z,100795.22
2022-10-10T22:04:02.476Z,100792.66
2022-10-10T22:06:32.064Z,100793.53
2022-10-10T22:09:00.787Z,100806.22
2022-10-10T22:11:34.529Z,100800.06
2022-10-10T22:14:04.908Z,100800.28
2022-10-10T22:16:34.190Z,100806.44
2022-10-10T22:19:04.718Z,100796.00
2022-10-10T22:21:34.823Z,100809.97
2022-10-10T22:24:05.581Z,100822.78
2022-10-10T22:26:33.971Z,100817.28
2022-10-10T22:29:01.219Z,100812.78
2022-10-10T22:31:30.409Z,100809.31
2022-10-10T22:33:58.008Z,100818.25
2022-10-10T22:36:25.271Z,100804.94
2022-10-10T22:38:54.134Z,100815.69
2022-10-10T22:41:21.830Z,100835.78
2022-10-10T22:43:49.833Z,100826.63
2022-10-10T22:46:17.306Z,100817.84
2022-10-10T22:48:49.972Z,100836.72
2022-10-10T22:51:19.837Z,100820.41
2022-10-10T22:53:52.189Z,100819.53
2022-10-10T22:56:20.811Z,100828.47
2022-10-10T22:58:49.917Z,100826.75
2022-10-10T23:01:20.659Z,100822.97
2022-10-10T23:03:48.382Z,100817.50
2022-10-10T23:06:18.657Z,100825.44
2022-10-10T23:17:14.672Z,100834.69
2022-10-10T23:19:45.274Z,100840.06
2022-10-10T23:22:13.040Z,100837.38
2022-10-10T23:36:04.471Z,100828.34
2022-10-10T23:38:37.070Z,100828.34
2022-10-10T23:41:08.407Z,100841.16
2022-10-10T23:43:36.219Z,100830.31
2022-10-10T23:46:04.291Z,100832.22
2022-10-10T23:48:32.494Z,100824.16
2022-10-10T23:59:20.842Z,100832.13
